sensor_id;sensor_type;location;lat;lon;timestamp;temperature;humidity
41142;SHT31;63666;52.284;20.890;2023-04-01T00:01:51;20.78;47.51
41142;SHT31;63666;52.284;20.890;2023-04-01T00:04:25;20.78;47.49
41142;SHT31;63666;52.284;20.890;2023-04-01T00:07:01;20.78;47.50
41142;SHT31;63666;52.284;20.890;2023-04-01T00:09:38;20.77;47.50
41142;SHT31;63666;52.284;20.890;2023-04-01T00:12:13;20.77;47.47
41142;SHT31;63666;52.284;20.890;2023-04-01T00:14:49;20.75;47.47
41142;SHT31;63666;52.284;20.890;2023-04-01T00:17:25;20.76;47.46
41142;SHT31;63666;52.284;20.890;2023-04-01T00:19:59;20.73;47.49
41142;SHT31;63666;52.284;20.890;2023-04-01T00:22:35;20.75;47.47
41142;SHT31;63666;52.284;20.890;2023-04-01T00:25:11;20.72;47.51
41142;SHT31;63666;52.284;20.890;2023-04-01T00:27:46;20.70;47.52
41142;SHT31;63666;52.284;20.890;2023-04-01T00:30:24;20.73;47.46
41142;SHT31;63666;52.284;20.890;2023-04-01T00:33:00;20.73;47.45
41142;SHT31;63666;52.284;20.890;2023-04-01T00:35:38;20.72;47.44
41142;SHT31;63666;52.284;20.890;2023-04-01T00:38:12;20.70;47.48
41142;SHT31;63666;52.284;20.890;2023-04-01T00:40:48;20.69;47.49
41142;SHT31;63666;52.284;20.890;2023-04-01T00:43:22;20.70;47.49
41142;SHT31;63666;52.284;20.890;2023-04-01T00:46:00;20.69;47.47
41142;SHT31;63666;52.284;20.890;2023-04-01T00:48:39;20.67;47.49
41142;SHT31;63666;52.284;20.890;2023-04-01T00:51:23;20.67;47.49
41142;SHT31;63666;52.284;20.890;2023-04-01T00:54:02;20.68;47.46
41142;SHT31;63666;52.284;20.890;2023-04-01T00:56:40;20.70;47.43
41142;SHT31;63666;52.284;20.890;2023-04-01T00:59:21;20.69;47.42
41142;SHT31;63666;52.284;20.890;2023-04-01T01:02:01;20.65;47.50
41142;SHT31;63666;52.284;20.890;2023-04-01T01:04:38;20.67;47.43
41142;SHT31;63666;52.284;20.890;2023-04-01T01:07:20;20.65;47.46
41142;SHT31;63666;52.284;20.890;2023-04-01T01:10:07;20.66;47.43
41142;SHT31;63666;52.284;20.890;2023-04-01T01:12:49;20.66;47.42
41142;SHT31;63666;52.284;20.890;2023-04-01T01:15:36;20.65;47.43
41142;SHT31;63666;52.284;20.890;2023-04-01T01:18:18;20.64;47.41
41142;SHT31;63666;52.284;20.890;2023-04-01T01:24:49;20.64;47.40
41142;SHT31;63666;52.284;20.890;2023-04-01T01:27:45;20.64;47.39
41142;SHT31;63666;52.284;20.890;2023-04-01T01:30:41;20.66;47.32
41142;SHT31;63666;52.284;20.890;2023-04-01T01:33:34;20.65;47.33
41142;SHT31;63666;52.284;20.890;2023-04-01T01:36:18;20.62;47.40
41142;SHT31;63666;52.284;20.890;2023-04-01T01:38:53;20.62;47.40
41142;SHT31;63666;52.284;20.890;2023-04-01T01:41:28;20.61;47.38
41142;SHT31;63666;52.284;20.890;2023-04-01T01:44:06;20.62;47.32
41142;SHT31;63666;52.284;20.890;2023-04-01T01:46:45;20.60;47.37
41142;SHT31;63666;52.284;20.890;2023-04-01T01:49:23;20.60;47.37
41142;SHT31;63666;52.284;20.890;2023-04-01T01:52:01;20.60;47.33
41142;SHT31;63666;52.284;20.890;2023-04-01T01:54:46;20.63;47.28
41142;SHT31;63666;52.284;20.890;2023-04-01T01:57:24;20.63;47.27
41142;SHT31;63666;52.284;20.890;2023-04-01T02:00:04;20.60;47.31
41142;SHT31;63666;52.284;20.890;2023-04-01T02:02:44;20.60;47.29
41142;SHT31;63666;52.284;20.890;2023-04-01T02:05:28;20.57;47.37
41142;SHT31;63666;52.284;20.890;2023-04-01T02:08:05;20.58;47.32
41142;SHT31;63666;52.284;20.890;2023-04-01T02:10:44;20.57;47.30
41142;SHT31;63666;52.284;20.890;2023-04-01T02:13:26;20.55;47.38
41142;SHT31;63666;52.284;20.890;2023-04-01T02:16:11;20.56;47.31
41142;SHT31;63666;52.284;20.890;2023-04-01T02:18:50;20.56;47.30
41142;SHT31;63666;52.284;20.890;2023-04-01T02:21:29;20.57;47.29
41142;SHT31;63666;52.284;20.890;2023-04-01T02:24:08;20.56;47.27
41142;SHT31;63666;52.284;20.890;2023-04-01T02:26:46;20.55;47.28
41142;SHT31;63666;52.284;20.890;2023-04-01T02:29:25;20.54;47.29
41142;SHT31;63666;52.284;20.890;2023-04-01T02:32:00;20.54;47.31
41142;SHT31;63666;52.284;20.890;2023-04-01T02:34:38;20.52;47.29
41142;SHT31;63666;52.284;20.890;2023-04-01T02:37:13;20.53;47.31
41142;SHT31;63666;52.284;20.890;2023-04-01T02:39:48;20.53;47.30
41142;SHT31;63666;52.284;20.890;2023-04-01T02:42:22;20.54;47.23
41142;SHT31;63666;52.284;20.890;2023-04-01T02:44:58;20.53;47.23
41142;SHT31;63666;52.284;20.890;2023-04-01T02:47:40;20.53;47.24
41142;SHT31;63666;52.284;20.890;2023-04-01T02:50:14;20.52;47.29
41142;SHT31;63666;52.284;20.890;2023-04-01T02:52:49;20.52;47.29
41142;SHT31;63666;52.284;20.890;2023-04-01T02:55:27;20.51;47.29
41142;SHT31;63666;52.284;20.890;2023-04-01T02:58:06;20.51;47.30
41142;SHT31;63666;52.284;20.890;2023-04-01T03:00:40;20.50;47.30
41142;SHT31;63666;52.284;20.890;2023-04-01T03:03:20;20.49;47.31
41142;SHT31;63666;52.284;20.890;2023-04-01T03:05:54;20.51;47.32
41142;SHT31;63666;52.284;20.890;2023-04-01T03:08:29;20.50;47.39
41142;SHT31;63666;52.284;20.890;2023-04-01T03:11:04;20.48;47.44
41142;SHT31;63666;52.284;20.890;2023-04-01T03:13:40;20.48;47.47
41142;SHT31;63666;52.284;20.890;2023-04-01T03:16:16;20.49;47.49
41142;SHT31;63666;52.284;20.890;2023-04-01T03:18:51;20.49;47.53
41142;SHT31;63666;52.284;20.890;2023-04-01T03:21:28;20.45;47.63
41142;SHT31;63666;52.284;20.890;2023-04-01T03:24:02;20.45;47.62
41142;SHT31;63666;52.284;20.890;2023-04-01T03:26:37;20.45;47.69
41142;SHT31;63666;52.284;20.890;2023-04-01T03:29:12;20.46;47.62
41142;SHT31;63666;52.284;20.890;2023-04-01T03:31:49;20.46;47.66
41142;SHT31;63666;52.284;20.890;2023-04-01T03:34:23;20.45;47.69
41142;SHT31;63666;52.284;20.890;2023-04-01T03:36:57;20.45;47.70
41142;SHT31;63666;52.284;20.890;2023-04-01T03:39:31;20.43;47.77
41142;SHT31;63666;52.284;20.890;2023-04-01T03:42:06;20.45;47.77
41142;SHT31;63666;52.284;20.890;2023-04-01T03:44:40;20.43;47.76
41142;SHT31;63666;52.284;20.890;2023-04-01T03:47:18;20.43;47.77
41142;SHT31;63666;52.284;20.890;2023-04-01T03:49:53;20.43;47.77
41142;SHT31;63666;52.284;20.890;2023-04-01T03:52:29;20.42;47.83
41142;SHT31;63666;52.284;20.890;2023-04-01T03:55:03;20.43;47.80
41142;SHT31;63666;52.284;20.890;2023-04-01T03:57:39;20.43;47.81
41142;SHT31;63666;52.284;20.890;2023-04-01T04:00:14;20.42;47.77
41142;SHT31;63666;52.284;20.890;2023-04-01T04:02:49;20.42;47.79
41142;SHT31;63666;52.284;20.890;2023-04-01T04:05:24;20.42;47.72
41142;SHT31;63666;52.284;20.890;2023-04-01T04:07:58;20.42;47.65
41142;SHT31;63666;52.284;20.890;2023-04-01T04:10:32;20.42;47.67
41142;SHT31;63666;52.284;20.890;2023-04-01T04:13:09;20.38;47.73
41142;SHT31;63666;52.284;20.890;2023-04-01T04:15:42;20.37;47.77
41142;SHT31;63666;52.284;20.890;2023-04-01T04:18:19;20.40;47.73
41142;SHT31;63666;52.284;20.890;2023-04-01T04:20:53;20.40;47.73
41142;SHT31;63666;52.284;20.890;2023-04-01T04:23:30;20.40;47.74
41142;SHT31;63666;52.284;20.890;2023-04-01T04:26:05;20.39;47.73
41142;SHT31;63666;52.284;20.890;2023-04-01T04:28:41;20.38;47.73
41142;SHT31;63666;52.284;20.890;2023-04-01T04:31:21;20.43;47.69
41142;SHT31;63666;52.284;20.890;2023-04-01T04:33:58;20.45;47.68
41142;SHT31;63666;52.284;20.890;2023-04-01T04:36:33;20.52;47.54
41142;SHT31;63666;52.284;20.890;2023-04-01T04:39:07;20.63;47.35
41142;SHT31;63666;52.284;20.890;2023-04-01T04:41:44;20.69;47.24
41142;SHT31;63666;52.284;20.890;2023-04-01T04:44:22;20.76;47.09
41142;SHT31;63666;52.284;20.890;2023-04-01T04:47:00;20.85;46.97
41142;SHT31;63666;52.284;20.890;2023-04-01T04:49:36;20.90;46.89
41142;SHT31;63666;52.284;20.890;2023-04-01T04:52:10;20.97;46.78
41142;SHT31;63666;52.284;20.890;2023-04-01T04:54:46;21.00;46.74
41142;SHT31;63666;52.284;20.890;2023-04-01T04:57:21;21.03;46.74
41142;SHT31;63666;52.284;20.890;2023-04-01T04:59:59;21.06;46.73
41142;SHT31;63666;52.284;20.890;2023-04-01T05:02:33;21.09;46.69
41142;SHT31;63666;52.284;20.890;2023-04-01T05:05:13;21.13;46.63
41142;SHT31;63666;52.284;20.890;2023-04-01T05:07:49;21.18;46.53
41142;SHT31;63666;52.284;20.890;2023-04-01T05:10:24;21.21;46.51
41142;SHT31;63666;52.284;20.890;2023-04-01T05:13:00;21.23;46.52
41142;SHT31;63666;52.284;20.890;2023-04-01T05:15:36;21.26;46.44
41142;SHT31;63666;52.284;20.890;2023-04-01T05:18:12;21.28;46.40
41142;SHT31;63666;52.284;20.890;2023-04-01T05:20:49;21.31;46.36
41142;SHT31;63666;52.284;20.890;2023-04-01T05:23:24;21.33;46.32
41142;SHT31;63666;52.284;20.890;2023-04-01T05:26:03;21.37;46.27
41142;SHT31;63666;52.284;20.890;2023-04-01T05:28:42;21.40;46.21
41142;SHT31;63666;52.284;20.890;2023-04-01T05:31:15;21.40;46.20
41142;SHT31;63666;52.284;20.890;2023-04-01T05:33:49;21.45;46.10
41142;SHT31;63666;52.284;20.890;2023-04-01T05:36:26;21.47;46.08
41142;SHT31;63666;52.284;20.890;2023-04-01T05:39:00;21.48;46.00
41142;SHT31;63666;52.284;20.890;2023-04-01T05:41:35;21.51;45.93
41142;SHT31;63666;52.284;20.890;2023-04-01T05:44:14;21.53;45.90
41142;SHT31;63666;52.284;20.890;2023-04-01T05:46:50;21.56;45.86
41142;SHT31;63666;52.284;20.890;2023-04-01T05:49:26;21.58;45.80
41142;SHT31;63666;52.284;20.890;2023-04-01T05:52:00;21.60;45.72
41142;SHT31;63666;52.284;20.890;2023-04-01T05:54:36;21.63;45.66
41142;SHT31;63666;52.284;20.890;2023-04-01T05:57:12;21.64;45.60
41142;SHT31;63666;52.284;20.890;2023-04-01T05:59:48;21.68;45.50
41142;SHT31;63666;52.284;20.890;2023-04-01T06:02:22;21.69;45.50
41142;SHT31;63666;52.284;20.890;2023-04-01T06:05:03;21.70;45.43
41142;SHT31;63666;52.284;20.890;2023-04-01T06:07:48;21.72;45.38
41142;SHT31;63666;52.284;20.890;2023-04-01T06:10:24;21.75;45.26
41142;SHT31;63666;52.284;20.890;2023-04-01T06:13:14;21.78;45.20
41142;SHT31;63666;52.284;20.890;2023-04-01T06:16:00;21.78;45.20
41142;SHT31;63666;52.284;20.890;2023-04-01T06:18:56;21.81;45.16
41142;SHT31;63666;52.284;20.890;2023-04-01T06:28:01;21.91;45.36
41142;SHT31;63666;52.284;20.890;2023-04-01T06:31:05;21.92;45.31
41142;SHT31;63666;52.284;20.890;2023-04-01T06:34:02;21.90;45.36
41142;SHT31;63666;52.284;20.890;2023-04-01T06:37:10;21.91;45.37
41142;SHT31;63666;52.284;20.890;2023-04-01T06:43:21;21.99;45.44
41142;SHT31;63666;52.284;20.890;2023-04-01T06:46:09;22.01;45.44
41142;SHT31;63666;52.284;20.890;2023-04-01T06:48:53;22.01;45.48
41142;SHT31;63666;52.284;20.890;2023-04-01T06:52:00;22.00;45.68
41142;SHT31;63666;52.284;20.890;2023-04-01T06:54:47;22.01;45.64
41142;SHT31;63666;52.284;20.890;2023-04-01T06:57:28;22.03;45.61
41142;SHT31;63666;52.284;20.890;2023-04-01T07:00:11;22.06;45.58
41142;SHT31;63666;52.284;20.890;2023-04-01T07:02:57;22.07;45.49
41142;SHT31;63666;52.284;20.890;2023-04-01T07:05:40;22.09;45.55
41142;SHT31;63666;52.284;20.890;2023-04-01T07:08:17;22.11;45.53
41142;SHT31;63666;52.284;20.890;2023-04-01T07:10:55;22.12;45.60
41142;SHT31;63666;52.284;20.890;2023-04-01T07:13:36;22.12;45.62
41142;SHT31;63666;52.284;20.890;2023-04-01T07:16:17;22.14;45.53
41142;SHT31;63666;52.284;20.890;2023-04-01T07:19:00;22.16;45.48
41142;SHT31;63666;52.284;20.890;2023-04-01T07:21:40;22.20;45.50
41142;SHT31;63666;52.284;20.890;2023-04-01T07:24:21;22.26;46.29
41142;SHT31;63666;52.284;20.890;2023-04-01T07:27:00;22.42;46.19
41142;SHT31;63666;52.284;20.890;2023-04-01T07:29:39;22.55;45.87
41142;SHT31;63666;52.284;20.890;2023-04-01T07:32:22;22.72;45.37
41142;SHT31;63666;52.284;20.890;2023-04-01T07:35:21;22.82;44.74
41142;SHT31;63666;52.284;20.890;2023-04-01T07:38:09;22.80;45.27
41142;SHT31;63666;52.284;20.890;2023-04-01T07:41:00;22.96;45.07
41142;SHT31;63666;52.284;20.890;2023-04-01T07:43:52;23.09;44.07
41142;SHT31;63666;52.284;20.890;2023-04-01T07:49:40;23.20;43.65
41142;SHT31;63666;52.284;20.890;2023-04-01T07:52:31;23.19;43.59
41142;SHT31;63666;52.284;20.890;2023-04-01T07:55:17;23.22;44.18
41142;SHT31;63666;52.284;20.890;2023-04-01T07:58:04;23.24;43.69
41142;SHT31;63666;52.284;20.890;2023-04-01T08:00:51;23.18;43.58
41142;SHT31;63666;52.284;20.890;2023-04-01T08:03:38;23.19;43.63
41142;SHT31;63666;52.284;20.890;2023-04-01T08:06:32;23.19;43.70
41142;SHT31;63666;52.284;20.890;2023-04-01T08:09:18;23.26;43.56
41142;SHT31;63666;52.284;20.890;2023-04-01T08:12:04;23.38;43.37
41142;SHT31;63666;52.284;20.890;2023-04-01T08:14:51;23.42;43.29
41142;SHT31;63666;52.284;20.890;2023-04-01T08:17:38;23.41;43.38
41142;SHT31;63666;52.284;20.890;2023-04-01T08:20:29;23.43;43.30
41142;SHT31;63666;52.284;20.890;2023-04-01T08:23:14;23.59;43.00
41142;SHT31;63666;52.284;20.890;2023-04-01T08:25:58;23.66;43.03
41142;SHT31;63666;52.284;20.890;2023-04-01T08:28:43;23.62;42.84
41142;SHT31;63666;52.284;20.890;2023-04-01T08:31:31;23.60;42.82
41142;SHT31;63666;52.284;20.890;2023-04-01T08:34:17;23.58;42.91
41142;SHT31;63666;52.284;20.890;2023-04-01T08:37:00;23.49;42.92
41142;SHT31;63666;52.284;20.890;2023-04-01T08:39:35;23.48;42.95
41142;SHT31;63666;52.284;20.890;2023-04-01T08:45:38;23.47;42.86
41142;SHT31;63666;52.284;20.890;2023-04-01T08:48:38;23.47;42.93
41142;SHT31;63666;52.284;20.890;2023-04-01T09:01:31;23.47;42.64
41142;SHT31;63666;52.284;20.890;2023-04-01T09:04:24;23.45;42.40
41142;SHT31;63666;52.284;20.890;2023-04-01T09:07:14;23.43;42.44
41142;SHT31;63666;52.284;20.890;2023-04-01T09:10:16;23.48;42.25
41142;SHT31;63666;52.284;20.890;2023-04-01T09:13:20;23.39;42.70
41142;SHT31;63666;52.284;20.890;2023-04-01T09:16:33;23.24;45.55
41142;SHT31;63666;52.284;20.890;2023-04-01T09:19:35;23.12;46.72
41142;SHT31;63666;52.284;20.890;2023-04-01T09:22:38;23.23;44.60
41142;SHT31;63666;52.284;20.890;2023-04-01T09:25:46;23.24;44.18
41142;SHT31;63666;52.284;20.890;2023-04-01T09:28:38;23.24;43.92
41142;SHT31;63666;52.284;20.890;2023-04-01T09:31:43;23.28;43.35
41142;SHT31;63666;52.284;20.890;2023-04-01T09:34:39;23.24;43.26
41142;SHT31;63666;52.284;20.890;2023-04-01T09:37:39;23.16;43.13
41142;SHT31;63666;52.284;20.890;2023-04-01T09:40:33;23.18;42.97
41142;SHT31;63666;52.284;20.890;2023-04-01T09:43:26;23.17;42.99
41142;SHT31;63666;52.284;20.890;2023-04-01T09:46:20;23.18;42.85
41142;SHT31;63666;52.284;20.890;2023-04-01T09:49:21;23.17;42.87
41142;SHT31;63666;52.284;20.890;2023-04-01T09:52:16;23.11;42.90
41142;SHT31;63666;52.284;20.890;2023-04-01T09:54:58;23.06;42.96
41142;SHT31;63666;52.284;20.890;2023-04-01T09:57:54;23.08;42.91
41142;SHT31;63666;52.284;20.890;2023-04-01T10:11:30;23.19;42.65
41142;SHT31;63666;52.284;20.890;2023-04-01T10:14:36;23.22;42.45
41142;SHT31;63666;52.284;20.890;2023-04-01T10:17:44;23.28;42.36
41142;SHT31;63666;52.284;20.890;2023-04-01T10:24:01;23.17;42.79
41142;SHT31;63666;52.284;20.890;2023-04-01T10:27:17;23.24;42.64
41142;SHT31;63666;52.284;20.890;2023-04-01T10:30:06;23.36;42.73
41142;SHT31;63666;52.284;20.890;2023-04-01T10:33:29;23.33;42.89
41142;SHT31;63666;52.284;20.890;2023-04-01T10:36:35;23.27;43.19
41142;SHT31;63666;52.284;20.890;2023-04-01T10:39:33;23.20;43.30
41142;SHT31;63666;52.284;20.890;2023-04-01T10:52:22;22.91;43.50
41142;SHT31;63666;52.284;20.890;2023-04-01T11:11:56;22.73;43.58
41142;SHT31;63666;52.284;20.890;2023-04-01T11:15:00;22.71;43.73
41142;SHT31;63666;52.284;20.890;2023-04-01T11:18:04;22.68;43.84
41142;SHT31;63666;52.284;20.890;2023-04-01T11:27:42;22.64;43.64
41142;SHT31;63666;52.284;20.890;2023-04-01T11:30:43;22.61;44.15
41142;SHT31;63666;52.284;20.890;2023-04-01T11:33:31;22.62;44.37
41142;SHT31;63666;52.284;20.890;2023-04-01T11:36:15;22.62;44.16
41142;SHT31;63666;52.284;20.890;2023-04-01T11:39:08;22.62;43.94
41142;SHT31;63666;52.284;20.890;2023-04-01T11:41:55;22.63;43.84
41142;SHT31;63666;52.284;20.890;2023-04-01T11:44:43;22.63;43.94
41142;SHT31;63666;52.284;20.890;2023-04-01T11:47:35;22.66;44.01
41142;SHT31;63666;52.284;20.890;2023-04-01T11:50:27;22.64;44.14
41142;SHT31;63666;52.284;20.890;2023-04-01T11:53:18;22.64;44.28
41142;SHT31;63666;52.284;20.890;2023-04-01T11:56:06;22.64;44.49
41142;SHT31;63666;52.284;20.890;2023-04-01T11:58:58;22.63;44.40
41142;SHT31;63666;52.284;20.890;2023-04-01T12:02:06;22.64;44.53
41142;SHT31;63666;52.284;20.890;2023-04-01T12:04:56;22.55;44.81
41142;SHT31;63666;52.284;20.890;2023-04-01T12:07:53;22.50;44.83
41142;SHT31;63666;52.284;20.890;2023-04-01T12:10:39;22.50;44.89
41142;SHT31;63666;52.284;20.890;2023-04-01T12:13:23;22.47;45.08
41142;SHT31;63666;52.284;20.890;2023-04-01T12:16:11;22.48;45.06
41142;SHT31;63666;52.284;20.890;2023-04-01T12:19:07;22.50;44.98
41142;SHT31;63666;52.284;20.890;2023-04-01T12:21:52;22.48;45.05
41142;SHT31;63666;52.284;20.890;2023-04-01T12:24:46;22.51;44.94
41142;SHT31;63666;52.284;20.890;2023-04-01T12:27:31;22.53;44.87
41142;SHT31;63666;52.284;20.890;2023-04-01T12:30:21;22.57;44.80
41142;SHT31;63666;52.284;20.890;2023-04-01T12:33:37;22.54;44.93
41142;SHT31;63666;52.284;20.890;2023-04-01T12:36:33;22.50;44.93
41142;SHT31;63666;52.284;20.890;2023-04-01T12:39:26;22.47;44.88
41142;SHT31;63666;52.284;20.890;2023-04-01T12:42:27;22.45;44.93
41142;SHT31;63666;52.284;20.890;2023-04-01T12:45:36;22.43;45.09
41142;SHT31;63666;52.284;20.890;2023-04-01T12:48:21;22.36;46.03
41142;SHT31;63666;52.284;20.890;2023-04-01T12:51:43;22.30;46.09
41142;SHT31;63666;52.284;20.890;2023-04-01T13:04:51;22.08;45.83
41142;SHT31;63666;52.284;20.890;2023-04-01T13:10:58;22.05;46.16
41142;SHT31;63666;52.284;20.890;2023-04-01T13:17:13;22.08;46.43
41142;SHT31;63666;52.284;20.890;2023-04-01T13:19:54;22.11;46.44
41142;SHT31;63666;52.284;20.890;2023-04-01T13:22:39;22.16;46.47
41142;SHT31;63666;52.284;20.890;2023-04-01T13:25:26;22.20;46.20
41142;SHT31;63666;52.284;20.890;2023-04-01T13:28:15;22.25;46.01
41142;SHT31;63666;52.284;20.890;2023-04-01T13:30:55;22.25;46.05
41142;SHT31;63666;52.284;20.890;2023-04-01T13:33:40;22.24;45.98
41142;SHT31;63666;52.284;20.890;2023-04-01T13:36:23;22.20;46.02
41142;SHT31;63666;52.284;20.890;2023-04-01T13:39:10;22.16;46.49
41142;SHT31;63666;52.284;20.890;2023-04-01T13:42:08;22.10;46.69
41142;SHT31;63666;52.284;20.890;2023-04-01T13:44:55;22.08;46.69
41142;SHT31;63666;52.284;20.890;2023-04-01T13:47:40;22.05;46.62
41142;SHT31;63666;52.284;20.890;2023-04-01T13:50:35;22.04;46.73
41142;SHT31;63666;52.284;20.890;2023-04-01T13:53:30;22.04;46.83
41142;SHT31;63666;52.284;20.890;2023-04-01T13:56:37;22.03;46.75
41142;SHT31;63666;52.284;20.890;2023-04-01T13:59:35;22.03;46.74
41142;SHT31;63666;52.284;20.890;2023-04-01T14:02:28;22.00;46.77
41142;SHT31;63666;52.284;20.890;2023-04-01T14:05:51;21.95;46.79
41142;SHT31;63666;52.284;20.890;2023-04-01T14:08:46;21.92;46.65
41142;SHT31;63666;52.284;20.890;2023-04-01T14:11:44;21.90;46.57
41142;SHT31;63666;52.284;20.890;2023-04-01T14:14:33;22.00;47.58
41142;SHT31;63666;52.284;20.890;2023-04-01T14:17:37;22.15;46.32
41142;SHT31;63666;52.284;20.890;2023-04-01T14:20:26;22.22;46.11
41142;SHT31;63666;52.284;20.890;2023-04-01T14:23:16;22.30;46.01
41142;SHT31;63666;52.284;20.890;2023-04-01T14:29:18;22.22;45.96
41142;SHT31;63666;52.284;20.890;2023-04-01T14:32:06;22.29;45.80
41142;SHT31;63666;52.284;20.890;2023-04-01T14:34:55;22.34;45.62
41142;SHT31;63666;52.284;20.890;2023-04-01T14:37:54;22.39;45.59
41142;SHT31;63666;52.284;20.890;2023-04-01T14:40:45;22.36;45.41
41142;SHT31;63666;52.284;20.890;2023-04-01T14:47:04;22.25;45.55
41142;SHT31;63666;52.284;20.890;2023-04-01T14:50:05;22.18;45.72
41142;SHT31;63666;52.284;20.890;2023-04-01T14:52:49;22.12;45.86
41142;SHT31;63666;52.284;20.890;2023-04-01T14:55:48;22.08;45.96
41142;SHT31;63666;52.284;20.890;2023-04-01T14:58:39;22.07;46.03
41142;SHT31;63666;52.284;20.890;2023-04-01T15:01:21;22.03;46.10
41142;SHT31;63666;52.284;20.890;2023-04-01T15:04:19;22.01;46.07
41142;SHT31;63666;52.284;20.890;2023-04-01T15:07:18;21.99;45.95
41142;SHT31;63666;52.284;20.890;2023-04-01T15:10:16;21.97;45.92
41142;SHT31;63666;52.284;20.890;2023-04-01T15:13:18;21.95;45.99
41142;SHT31;63666;52.284;20.890;2023-04-01T15:16:11;21.94;45.96
41142;SHT31;63666;52.284;20.890;2023-04-01T15:18:56;21.92;45.96
41142;SHT31;63666;52.284;20.890;2023-04-01T15:21:58;21.92;46.10
41142;SHT31;63666;52.284;20.890;2023-04-01T15:24:59;21.93;46.19
41142;SHT31;63666;52.284;20.890;2023-04-01T15:27:54;21.92;46.30
41142;SHT31;63666;52.284;20.890;2023-04-01T15:30:47;21.89;46.35
41142;SHT31;63666;52.284;20.890;2023-04-01T15:33:38;21.85;46.40
41142;SHT31;63666;52.284;20.890;2023-04-01T15:36:27;21.80;46.54
41142;SHT31;63666;52.284;20.890;2023-04-01T15:39:05;21.78;46.66
41142;SHT31;63666;52.284;20.890;2023-04-01T15:41:51;21.76;46.99
41142;SHT31;63666;52.284;20.890;2023-04-01T15:44:50;21.76;47.39
41142;SHT31;63666;52.284;20.890;2023-04-01T15:47:40;21.78;47.24
41142;SHT31;63666;52.284;20.890;2023-04-01T15:53:27;21.79;47.42
41142;SHT31;63666;52.284;20.890;2023-04-01T15:56:25;21.76;47.45
41142;SHT31;63666;52.284;20.890;2023-04-01T15:59:14;21.73;47.54
41142;SHT31;63666;52.284;20.890;2023-04-01T16:02:10;21.72;47.55
41142;SHT31;63666;52.284;20.890;2023-04-01T16:04:55;21.71;47.58
41142;SHT31;63666;52.284;20.890;2023-04-01T16:10:41;21.71;47.69
41142;SHT31;63666;52.284;20.890;2023-04-01T16:13:34;21.66;47.95
41142;SHT31;63666;52.284;20.890;2023-04-01T16:16:22;21.65;48.21
41142;SHT31;63666;52.284;20.890;2023-04-01T16:19:24;21.63;48.27
41142;SHT31;63666;52.284;20.890;2023-04-01T16:22:21;21.63;48.36
41142;SHT31;63666;52.284;20.890;2023-04-01T16:25:17;21.65;48.42
41142;SHT31;63666;52.284;20.890;2023-04-01T16:28:13;21.65;48.40
41142;SHT31;63666;52.284;20.890;2023-04-01T16:30:58;21.64;48.40
41142;SHT31;63666;52.284;20.890;2023-04-01T16:33:43;21.63;48.41
41142;SHT31;63666;52.284;20.890;2023-04-01T16:36:27;21.62;48.41
41142;SHT31;63666;52.284;20.890;2023-04-01T16:39:15;21.62;48.40
41142;SHT31;63666;52.284;20.890;2023-04-01T16:42:11;21.62;48.46
41142;SHT31;63666;52.284;20.890;2023-04-01T16:45:16;21.61;48.49
41142;SHT31;63666;52.284;20.890;2023-04-01T16:48:05;21.62;48.46
41142;SHT31;63666;52.284;20.890;2023-04-01T16:50:48;21.61;48.43
41142;SHT31;63666;52.284;20.890;2023-04-01T16:53:37;21.61;48.44
41142;SHT31;63666;52.284;20.890;2023-04-01T16:56:20;21.59;48.50
41142;SHT31;63666;52.284;20.890;2023-04-01T16:59:13;21.59;48.49
41142;SHT31;63666;52.284;20.890;2023-04-01T17:01:53;21.59;48.50
41142;SHT31;63666;52.284;20.890;2023-04-01T17:04:41;21.59;48.47
41142;SHT31;63666;52.284;20.890;2023-04-01T17:07:21;21.58;48.45
41142;SHT31;63666;52.284;20.890;2023-04-01T17:13:21;21.57;48.46
41142;SHT31;63666;52.284;20.890;2023-04-01T17:16:13;21.56;48.47
41142;SHT31;63666;52.284;20.890;2023-04-01T17:19:08;21.55;48.49
41142;SHT31;63666;52.284;20.890;2023-04-01T17:22:11;21.55;48.45
41142;SHT31;63666;52.284;20.890;2023-04-01T17:25:02;21.53;48.44
41142;SHT31;63666;52.284;20.890;2023-04-01T17:28:05;21.53;48.40
41142;SHT31;63666;52.284;20.890;2023-04-01T17:30:59;21.53;48.39
41142;SHT31;63666;52.284;20.890;2023-04-01T17:33:53;21.52;48.39
41142;SHT31;63666;52.284;20.890;2023-04-01T17:36:43;21.51;48.38
41142;SHT31;63666;52.284;20.890;2023-04-01T17:39:39;21.50;48.37
41142;SHT31;63666;52.284;20.890;2023-04-01T17:42:31;21.50;48.33
41142;SHT31;63666;52.284;20.890;2023-04-01T17:45:18;21.50;48.30
41142;SHT31;63666;52.284;20.890;2023-04-01T17:48:08;21.50;48.24
41142;SHT31;63666;52.284;20.890;2023-04-01T17:51:01;21.51;48.20
41142;SHT31;63666;52.284;20.890;2023-04-01T17:53:54;21.49;48.21
41142;SHT31;63666;52.284;20.890;2023-04-01T17:56:44;21.48;48.21
41142;SHT31;63666;52.284;20.890;2023-04-01T17:59:35;21.47;48.20
41142;SHT31;63666;52.284;20.890;2023-04-01T18:02:18;21.48;48.20
41142;SHT31;63666;52.284;20.890;2023-04-01T18:08:09;21.47;48.17
41142;SHT31;63666;52.284;20.890;2023-04-01T18:10:58;21.46;48.11
41142;SHT31;63666;52.284;20.890;2023-04-01T18:16:55;21.43;48.15
41142;SHT31;63666;52.284;20.890;2023-04-01T18:19:51;21.44;48.10
41142;SHT31;63666;52.284;20.890;2023-04-01T18:22:39;21.44;48.08
41142;SHT31;63666;52.284;20.890;2023-04-01T18:25:20;21.44;48.05
41142;SHT31;63666;52.284;20.890;2023-04-01T18:28:07;21.44;48.01
41142;SHT31;63666;52.284;20.890;2023-04-01T18:30:58;21.43;47.98
41142;SHT31;63666;52.284;20.890;2023-04-01T18:33:44;21.39;48.00
41142;SHT31;63666;52.284;20.890;2023-04-01T18:36:26;21.41;47.99
41142;SHT31;63666;52.284;20.890;2023-04-01T18:39:17;21.41;48.01
41142;SHT31;63666;52.284;20.890;2023-04-01T18:42:06;21.41;48.00
41142;SHT31;63666;52.284;20.890;2023-04-01T18:44:52;21.40;47.99
41142;SHT31;63666;52.284;20.890;2023-04-01T18:47:35;21.40;47.95
41142;SHT31;63666;52.284;20.890;2023-04-01T18:50:21;21.38;47.94
41142;SHT31;63666;52.284;20.890;2023-04-01T18:52:59;21.37;47.93
41142;SHT31;63666;52.284;20.890;2023-04-01T18:55:54;21.37;47.90
41142;SHT31;63666;52.284;20.890;2023-04-01T18:58:34;21.33;47.96
41142;SHT31;63666;52.284;20.890;2023-04-01T19:01:22;21.34;47.88
41142;SHT31;63666;52.284;20.890;2023-04-01T19:04:06;21.35;47.82
41142;SHT31;63666;52.284;20.890;2023-04-01T19:06:51;21.33;47.81
41142;SHT31;63666;52.284;20.890;2023-04-01T19:09:42;21.32;47.84